Time;durP1;ratioP1;P1;durP2;ratioP2;P2;SDS_P1;SDS_P2;PMS_P1;PMS_P2;Temp;Humidity;BMP_temperature;BMP_pressure;BME280_temperature;BME280_humidity;BME280_pressure;Samples;Min_cycle;Max_cycle;Signal;HPM_P1;HPM_P2
2022/11/02 00:01:09;;;;;;;;;;;;;;;;;;4936049;29;19919;-81
2022/11/02 00:03:34;;;;;;;;;;;;;;;;;;4918882;29;19922;-81
2022/11/02 00:05:59;;;;;;;;;;;;;;;;;;4935109;29;19921;-79
2022/11/02 00:08:25;;;;;;;;;;;;;;;;;;4935950;29;20310;-81
2022/11/02 00:10:50;;;;;;;;;;;;;;;;;;4936076;29;19921;-81
2022/11/02 00:13:18;;;;;;;;;;;;;;;;;;4934335;29;19915;-80
2022/11/02 00:15:44;;;;;;;;;;;;;;;;;;4935001;29;19921;-80
2022/11/02 00:18:09;;;;;;;;;;;;;;;;;;4934650;29;20330;-81
2022/11/02 00:20:35;;;;;;;;;;;;;;;;;;4935426;29;19918;-79
2022/11/02 00:23:00;;;;;;;;;;;;;;;;;;4935683;29;19921;-80
2022/11/02 00:25:25;;;;;;;;;;;;;;;;;;4934747;29;19911;-80
2022/11/02 00:27:51;;;;;;;;;;;;;;;;;;4934256;29;19914;-79
2022/11/02 00:30:17;;;;;;;;;;;;;;;;;;4919051;29;19921;-81
2022/11/02 00:32:43;;;;;;;;;;;;;;;;;;4902816;29;19914;-81
2022/11/02 00:35:09;;;;;;;;;;;;;;;;;;4935513;29;19919;-80
2022/11/02 00:37:34;;;;;;;;;;;;;;;;;;4935547;29;20378;-80
2022/11/02 00:39:59;;;;;;;;;;;;;;;;;;4934519;29;19927;-81
2022/11/02 00:42:25;;;;;;;;;;;;;;;;;;4918057;29;19918;-83
2022/11/02 00:44:53;;;;;;;;;;;;;;;;;;4918681;29;20375;-81
2022/11/02 00:47:18;;;;;;;;;;;;;;;;;;4935498;29;20005;-80
2022/11/02 00:49:44;;;;;;;;;;;;;;;;;;4935799;29;20294;-80
2022/11/02 00:52:09;;;;;;;;;;;;;;;;;;4918234;29;19915;-81
2022/11/02 00:54:35;;;;;;;;;;;;;;;;;;4934092;29;19918;-81
2022/11/02 00:57:00;;;;;;;;;;;;;;;;;;4918721;29;20287;-81
2022/11/02 00:59:25;;;;;;;;;;;;;;;;;;4935446;29;19922;-80
2022/11/02 01:01:54;;;;;;;;;;;;;;;;;;4934191;29;19937;-80
2022/11/02 01:04:19;;;;;;;;;;;;;;;;;;4902532;29;20048;-82
2022/11/02 01:06:44;;;;;;;;;;;;;;;;;;4935313;29;19970;-81
2022/11/02 01:09:10;;;;;;;;;;;;;;;;;;4934022;29;20374;-79
2022/11/02 01:11:35;;;;;;;;;;;;;;;;;;4935330;29;19919;-81
2022/11/02 01:14:00;;;;;;;;;;;;;;;;;;4933955;29;19922;-80
2022/11/02 01:16:26;;;;;;;;;;;;;;;;;;4918216;29;19919;-80
2022/11/02 01:18:52;;;;;;;;;;;;;;;;;;4935317;29;20382;-79
2022/11/02 01:21:17;;;;;;;;;;;;;;;;;;4935119;29;19918;-78
2022/11/02 01:23:43;;;;;;;;;;;;;;;;;;4918211;29;20274;-83
2022/11/02 01:26:09;;;;;;;;;;;;;;;;;;4918309;29;19958;-85
2022/11/02 01:28:34;;;;;;;;;;;;;;;;;;4935253;29;20001;-82
2022/11/02 01:31:00;;;;;;;;;;;;;;;;;;4936333;29;19922;-79
2022/11/02 01:33:26;;;;;;;;;;;;;;;;;;4949280;29;19919;-79
2022/11/02 01:35:52;;;;;;;;;;;;;;;;;;4951390;29;20005;-79
2022/11/02 01:38:18;;;;;;;;;;;;;;;;;;4940184;29;20350;-81
2022/11/02 01:40:43;;;;;;;;;;;;;;;;;;4937881;29;19919;-80
2022/11/02 01:43:09;;;;;;;;;;;;;;;;;;4938910;29;20298;-80
2022/11/02 01:45:34;;;;;;;;;;;;;;;;;;4921618;29;20370;-79
2022/11/02 01:47:59;;;;;;;;;;;;;;;;;;4937464;29;20346;-81
2022/11/02 01:50:25;;;;;;;;;;;;;;;;;;4938630;29;19921;-80
2022/11/02 01:52:50;;;;;;;;;;;;;;;;;;4921542;29;20326;-80
2022/11/02 01:55:18;;;;;;;;;;;;;;;;;;4937131;29;20388;-79
2022/11/02 01:57:43;;;;;;;;;;;;;;;;;;4937606;29;19915;-80
2022/11/02 02:00:09;;;;;;;;;;;;;;;;;;4905768;29;20367;-79
2022/11/02 02:02:40;;;;;;;;;;;;;;;;;;4921176;29;19915;-80
2022/11/02 02:05:05;;;;;;;;;;;;;;;;;;4921487;29;20342;-79
2022/11/02 02:07:31;;;;;;;;;;;;;;;;;;4921740;29;20267;-80
2022/11/02 02:09:56;;;;;;;;;;;;;;;;;;4937499;29;20291;-80
2022/11/02 02:12:22;;;;;;;;;;;;;;;;;;4922200;29;20404;-79
2022/11/02 02:14:47;;;;;;;;;;;;;;;;;;4938035;29;19921;-79
2022/11/02 02:17:13;;;;;;;;;;;;;;;;;;4939457;29;20275;-80
2022/11/02 02:19:39;;;;;;;;;;;;;;;;;;4923039;29;19915;-79
2022/11/02 02:22:05;;;;;;;;;;;;;;;;;;4923180;29;20390;-80
2022/11/02 02:24:32;;;;;;;;;;;;;;;;;;4937947;29;19953;-79
2022/11/02 02:26:57;;;;;;;;;;;;;;;;;;4939499;29;19914;-79
2022/11/02 02:29:22;;;;;;;;;;;;;;;;;;4938666;29;19926;-80
2022/11/02 02:31:48;;;;;;;;;;;;;;;;;;4937130;29;19915;-81
2022/11/02 02:34:13;;;;;;;;;;;;;;;;;;4920711;29;19919;-79
2022/11/02 02:36:39;;;;;;;;;;;;;;;;;;4921177;29;19914;-80
2022/11/02 02:39:04;;;;;;;;;;;;;;;;;;4936643;29;20287;-79
2022/11/02 02:41:29;;;;;;;;;;;;;;;;;;4936584;29;19925;-81
2022/11/02 02:43:55;;;;;;;;;;;;;;;;;;4935707;29;19998;-82
2022/11/02 02:46:20;;;;;;;;;;;;;;;;;;4937595;29;19915;-80
2022/11/02 02:48:45;;;;;;;;;;;;;;;;;;4920728;29;19915;-80
2022/11/02 02:51:11;;;;;;;;;;;;;;;;;;4920862;29;20458;-79
2022/11/02 02:53:36;;;;;;;;;;;;;;;;;;4937242;29;20294;-78
2022/11/02 02:56:02;;;;;;;;;;;;;;;;;;4920334;29;20338;-80
2022/11/02 02:58:27;;;;;;;;;;;;;;;;;;4920446;29;19915;-82
2022/11/02 03:00:53;;;;;;;;;;;;;;;;;;4937414;29;19923;-80
2022/11/02 03:03:20;;;;;;;;;;;;;;;;;;4935980;29;19915;-80
2022/11/02 03:05:46;;;;;;;;;;;;;;;;;;4937374;29;20607;-80
2022/11/02 03:08:11;;;;;;;;;;;;;;;;;;4936459;29;19922;-80
2022/11/02 03:10:36;;;;;;;;;;;;;;;;;;4936277;29;20326;-79
2022/11/02 03:13:04;;;;;;;;;;;;;;;;;;4935872;29;19922;-81
2022/11/02 03:15:30;;;;;;;;;;;;;;;;;;4937269;29;19911;-79
2022/11/02 03:17:55;;;;;;;;;;;;;;;;;;4920100;29;19990;-80
2022/11/02 03:20:20;;;;;;;;;;;;;;;;;;4920006;29;19934;-80
2022/11/02 03:22:46;;;;;;;;;;;;;;;;;;4935817;29;20391;-79
2022/11/02 03:25:11;;;;;;;;;;;;;;;;;;4919948;29;20334;-80
2022/11/02 03:27:38;;;;;;;;;;;;;;;;;;4935554;29;19915;-79
2022/11/02 03:30:04;;;;;;;;;;;;;;;;;;4935694;29;19937;-80
2022/11/02 03:32:29;;;;;;;;;;;;;;;;;;4919732;29;19915;-79
2022/11/02 03:34:55;;;;;;;;;;;;;;;;;;4935430;29;19925;-80
2022/11/02 03:37:20;;;;;;;;;;;;;;;;;;4920065;29;19922;-80
2022/11/02 03:39:46;;;;;;;;;;;;;;;;;;4936849;29;19943;-80
2022/11/02 03:42:12;;;;;;;;;;;;;;;;;;4919663;29;20294;-82
2022/11/02 03:44:37;;;;;;;;;;;;;;;;;;4919645;29;19922;-79
2022/11/02 03:47:03;;;;;;;;;;;;;;;;;;4935342;29;20283;-80
2022/11/02 03:49:28;;;;;;;;;;;;;;;;;;4935188;29;19918;-80
2022/11/02 03:51:53;;;;;;;;;;;;;;;;;;4935269;29;19915;-81
2022/11/02 03:54:20;;;;;;;;;;;;;;;;;;4934533;29;19911;-81
2022/11/02 03:56:46;;;;;;;;;;;;;;;;;;4935135;29;19942;-80
2022/11/02 03:59:12;;;;;;;;;;;;;;;;;;4919466;29;20294;-80
2022/11/02 04:01:37;;;;;;;;;;;;;;;;;;4903894;29;19926;-79
2022/11/02 04:04:03;;;;;;;;;;;;;;;;;;4920454;29;19918;-80
2022/11/02 04:06:28;;;;;;;;;;;;;;;;;;4920154;29;19922;-80
2022/11/02 04:08:54;;;;;;;;;;;;;;;;;;4936772;29;19939;-78
2022/11/02 04:19:44;;;;;;;;;;;;;;;;;;4937167;29;20001;-79
2022/11/02 04:25:19;;;;;;;;;;;;;;;;;;4938048;29;19965;-79
2022/11/02 04:28:04;;;;;;;;;;;;;;;;;;4940367;29;19915;-80
2022/11/02 04:30:29;;;;;;;;;;;;;;;;;;4922633;29;19974;-80
2022/11/02 04:35:50;;;;;;;;;;;;;;;;;;4921417;29;20294;-79
2022/11/02 04:43:48;;;;;;;;;;;;;;;;;;4938201;29;19921;-79
2022/11/02 04:46:15;;;;;;;;;;;;;;;;;;4924222;29;19974;-80
2022/11/02 04:48:41;;;;;;;;;;;;;;;;;;4923236;29;19922;-80
2022/11/02 04:51:06;;;;;;;;;;;;;;;;;;4940341;29;19919;-79
2022/11/02 04:53:32;;;;;;;;;;;;;;;;;;4939688;29;19914;-80
2022/11/02 04:55:57;;;;;;;;;;;;;;;;;;4922827;29;19921;-79
2022/11/02 04:58:24;;;;;;;;;;;;;;;;;;4938204;29;20005;-79
2022/11/02 05:00:49;;;;;;;;;;;;;;;;;;4940688;29;19981;-79
2022/11/02 05:03:15;;;;;;;;;;;;;;;;;;4940024;29;19914;-79
2022/11/02 05:05:42;;;;;;;;;;;;;;;;;;4923320;29;19914;-79
2022/11/02 05:08:08;;;;;;;;;;;;;;;;;;4939668;29;20367;-79
2022/11/02 05:10:34;;;;;;;;;;;;;;;;;;4939475;29;19915;-79
2022/11/02 05:13:00;;;;;;;;;;;;;;;;;;4941421;29;20385;-79
2022/11/02 05:15:29;;;;;;;;;;;;;;;;;;4940759;29;19919;-80
2022/11/02 05:17:56;;;;;;;;;;;;;;;;;;4939800;29;20143;-79
2022/11/02 05:20:22;;;;;;;;;;;;;;;;;;4940261;29;20382;-79
2022/11/02 05:22:47;;;;;;;;;;;;;;;;;;4922895;29;19915;-79
2022/11/02 05:25:14;;;;;;;;;;;;;;;;;;4923361;29;20314;-80
2022/11/02 05:27:39;;;;;;;;;;;;;;;;;;4939676;29;19914;-78
2022/11/02 05:30:05;;;;;;;;;;;;;;;;;;4936690;29;19915;-78
2022/11/02 05:32:32;;;;;;;;;;;;;;;;;;4920444;29;19915;-79
2022/11/02 05:34:58;;;;;;;;;;;;;;;;;;4937920;29;19941;-79
2022/11/02 05:37:24;;;;;;;;;;;;;;;;;;4939832;29;20433;-79
2022/11/02 05:39:49;;;;;;;;;;;;;;;;;;4939121;29;19926;-78
2022/11/02 05:42:14;;;;;;;;;;;;;;;;;;4938508;29;19969;-79
2022/11/02 05:44:40;;;;;;;;;;;;;;;;;;4940866;29;20128;-79
2022/11/02 05:47:05;;;;;;;;;;;;;;;;;;4940414;29;19915;-78
2022/11/02 05:49:31;;;;;;;;;;;;;;;;;;4940303;29;20490;-79
2022/11/02 05:51:56;;;;;;;;;;;;;;;;;;4922016;29;20445;-79
2022/11/02 05:54:21;;;;;;;;;;;;;;;;;;4937528;29;19915;-79
2022/11/02 05:56:47;;;;;;;;;;;;;;;;;;4938373;29;20009;-79
2022/11/02 05:59:12;;;;;;;;;;;;;;;;;;4906527;29;19922;-79
2022/11/02 06:01:38;;;;;;;;;;;;;;;;;;4939271;29;19919;-79
2022/11/02 06:04:03;;;;;;;;;;;;;;;;;;4923180;29;19915;-79
2022/11/02 06:06:28;;;;;;;;;;;;;;;;;;4939923;29;20290;-79
2022/11/02 06:08:54;;;;;;;;;;;;;;;;;;4940528;29;19915;-79
2022/11/02 06:11:19;;;;;;;;;;;;;;;;;;4924118;29;20367;-80
2022/11/02 06:13:44;;;;;;;;;;;;;;;;;;4942493;29;19914;-79
2022/11/02 06:16:10;;;;;;;;;;;;;;;;;;4941618;29;19982;-79
2022/11/02 06:18:35;;;;;;;;;;;;;;;;;;4941779;29;19915;-79
2022/11/02 06:21:01;;;;;;;;;;;;;;;;;;4943240;29;19919;-79
2022/11/02 06:23:26;;;;;;;;;;;;;;;;;;4909864;29;19950;-79
2022/11/02 06:25:52;;;;;;;;;;;;;;;;;;4941149;29;19917;-79
2022/11/02 06:28:17;;;;;;;;;;;;;;;;;;4941883;29;20425;-79
2022/11/02 06:30:43;;;;;;;;;;;;;;;;;;4925831;29;20378;-79
2022/11/02 06:33:08;;;;;;;;;;;;;;;;;;4926141;29;19946;-79
2022/11/02 06:35:36;;;;;;;;;;;;;;;;;;4941097;29;19931;-79
2022/11/02 06:38:02;;;;;;;;;;;;;;;;;;4942510;29;19934;-79
2022/11/02 06:40:28;;;;;;;;;;;;;;;;;;4943577;29;20290;-79
2022/11/02 06:42:53;;;;;;;;;;;;;;;;;;4942508;29;19958;-79
2022/11/02 06:45:18;;;;;;;;;;;;;;;;;;4942001;29;20307;-79
2022/11/02 06:47:44;;;;;;;;;;;;;;;;;;4943196;29;19914;-79
2022/11/02 06:50:09;;;;;;;;;;;;;;;;;;4943180;29;19922;-79
2022/11/02 06:52:35;;;;;;;;;;;;;;;;;;4943615;29;19954;-79
2022/11/02 06:55:00;;;;;;;;;;;;;;;;;;4940504;29;19921;-79
2022/11/02 06:57:26;;;;;;;;;;;;;;;;;;4937908;29;19915;-80
2022/11/02 06:59:51;;;;;;;;;;;;;;;;;;4937461;29;19914;-80
2022/11/02 07:02:20;;;;;;;;;;;;;;;;;;4937458;29;20649;-80
2022/11/02 07:04:46;;;;;;;;;;;;;;;;;;4937676;29;19938;-80
2022/11/02 07:07:11;;;;;;;;;;;;;;;;;;4937911;29;19948;-79
2022/11/02 07:09:37;;;;;;;;;;;;;;;;;;4939327;29;19918;-80
2022/11/02 07:12:02;;;;;;;;;;;;;;;;;;4942035;29;19922;-81
2022/11/02 07:14:28;;;;;;;;;;;;;;;;;;4938202;29;20330;-78
2022/11/02 07:16:53;;;;;;;;;;;;;;;;;;4920605;29;19915;-80
2022/11/02 07:19:19;;;;;;;;;;;;;;;;;;4936726;29;19919;-81
2022/11/02 07:21:44;;;;;;;;;;;;;;;;;;4937673;29;19966;-80
2022/11/02 07:24:09;;;;;;;;;;;;;;;;;;4936165;29;19925;-79
2022/11/02 07:26:35;;;;;;;;;;;;;;;;;;4936981;29;20398;-79
2022/11/02 07:29:00;;;;;;;;;;;;;;;;;;4937735;29;19915;-80
2022/11/02 07:31:26;;;;;;;;;;;;;;;;;;4935768;29;19922;-81
2022/11/02 07:33:54;;;;;;;;;;;;;;;;;;4937225;29;19915;-79
2022/11/02 07:36:20;;;;;;;;;;;;;;;;;;4936936;29;20419;-79
2022/11/02 07:38:45;;;;;;;;;;;;;;;;;;4935509;29;19915;-80
2022/11/02 07:41:11;;;;;;;;;;;;;;;;;;4935551;29;19929;-80
2022/11/02 07:43:36;;;;;;;;;;;;;;;;;;4936717;29;19918;-80
2022/11/02 07:46:12;;;;;;;;;;;;;;;;;;4937311;29;19949;-79
2022/11/02 07:48:37;;;;;;;;;;;;;;;;;;4935651;29;20363;-80
2022/11/02 07:51:03;;;;;;;;;;;;;;;;;;4936830;29;19954;-81
2022/11/02 07:53:28;;;;;;;;;;;;;;;;;;4936313;29;19918;-80
2022/11/02 07:55:54;;;;;;;;;;;;;;;;;;4936158;29;19915;-80
2022/11/02 07:58:19;;;;;;;;;;;;;;;;;;4919288;29;19938;-82
2022/11/02 08:00:44;;;;;;;;;;;;;;;;;;4934840;29;19919;-82
2022/11/02 08:03:10;;;;;;;;;;;;;;;;;;4918893;29;19911;-80
2022/11/02 08:05:35;;;;;;;;;;;;;;;;;;4936071;29;19998;-79
2022/11/02 08:08:01;;;;;;;;;;;;;;;;;;4919016;29;19915;-81
2022/11/02 08:10:26;;;;;;;;;;;;;;;;;;4919032;29;20298;-82
2022/11/02 08:12:52;;;;;;;;;;;;;;;;;;4919064;29;19918;-82
2022/11/02 08:15:17;;;;;;;;;;;;;;;;;;4934753;29;19919;-80
2022/11/02 08:17:42;;;;;;;;;;;;;;;;;;4934541;29;20371;-82
2022/11/02 08:20:08;;;;;;;;;;;;;;;;;;4935829;29;19914;-80
2022/11/02 08:22:33;;;;;;;;;;;;;;;;;;4934374;29;20338;-81
2022/11/02 08:24:59;;;;;;;;;;;;;;;;;;4920330;29;19919;-80
2022/11/02 08:27:24;;;;;;;;;;;;;;;;;;4919110;29;19974;-80
2022/11/02 08:29:49;;;;;;;;;;;;;;;;;;4935127;29;19927;-81
2022/11/02 08:32:15;;;;;;;;;;;;;;;;;;4935595;29;19914;-79
2022/11/02 08:34:40;;;;;;;;;;;;;;;;;;4935642;29;19973;-79
2022/11/02 08:37:06;;;;;;;;;;;;;;;;;;4934800;29;20389;-81
2022/11/02 08:39:31;;;;;;;;;;;;;;;;;;4936166;29;20306;-80
2022/11/02 08:41:57;;;;;;;;;;;;;;;;;;4935479;29;19923;-79
2022/11/02 08:44:22;;;;;;;;;;;;;;;;;;4918288;29;19914;-79
2022/11/02 08:46:47;;;;;;;;;;;;;;;;;;4935140;29;20428;-80
2022/11/02 08:49:13;;;;;;;;;;;;;;;;;;4937112;29;19926;-80
2022/11/02 08:51:38;;;;;;;;;;;;;;;;;;4919053;29;19922;-80
2022/11/02 08:54:04;;;;;;;;;;;;;;;;;;4919670;29;19915;-79
2022/11/02 08:56:29;;;;;;;;;;;;;;;;;;4938236;29;19938;-79
2022/11/02 08:58:55;;;;;;;;;;;;;;;;;;4935876;29;19966;-80
2022/11/02 09:01:20;;;;;;;;;;;;;;;;;;4936366;29;20009;-80
2022/11/02 09:03:45;;;;;;;;;;;;;;;;;;4938504;29;19918;-80
2022/11/02 09:06:11;;;;;;;;;;;;;;;;;;4935435;29;19915;-80
2022/11/02 09:08:36;;;;;;;;;;;;;;;;;;4937447;29;19969;-80
2022/11/02 09:11:02;;;;;;;;;;;;;;;;;;4936327;29;19915;-80
2022/11/02 09:13:27;;;;;;;;;;;;;;;;;;4935616;29;19915;-79
2022/11/02 09:15:52;;;;;;;;;;;;;;;;;;4938306;29;20022;-79
2022/11/02 09:18:18;;;;;;;;;;;;;;;;;;4938460;29;19914;-80
2022/11/02 09:20:45;;;;;;;;;;;;;;;;;;4935773;29;20836;-81
2022/11/02 09:23:10;;;;;;;;;;;;;;;;;;4934987;29;20383;-81
2022/11/02 09:25:36;;;;;;;;;;;;;;;;;;4933917;29;19915;-81
2022/11/02 09:28:01;;;;;;;;;;;;;;;;;;4934025;29;20357;-81
2022/11/02 09:30:27;;;;;;;;;;;;;;;;;;4934955;29;19941;-80
2022/11/02 09:32:53;;;;;;;;;;;;;;;;;;4935141;29;19911;-83
2022/11/02 09:35:21;;;;;;;;;;;;;;;;;;4956683;23;19945;-91
2022/11/02 09:37:46;;;;;;;;;;;;;;;;;;4921583;29;19947;-91
2022/11/02 09:40:12;;;;;;;;;;;;;;;;;;4953995;29;20437;-89
2022/11/02 09:42:37;;;;;;;;;;;;;;;;;;4938088;29;19919;-90
2022/11/02 09:45:02;;;;;;;;;;;;;;;;;;4918843;29;20362;-91
2022/11/02 09:47:28;;;;;;;;;;;;;;;;;;4918482;29;19962;-91
2022/11/02 09:49:53;;;;;;;;;;;;;;;;;;4918198;29;19925;-87
2022/11/02 09:52:19;;;;;;;;;;;;;;;;;;4935473;29;20378;-88
2022/11/02 09:54:47;;;;;;;;;;;;;;;;;;4939408;29;20370;-90
2022/11/02 09:57:13;;;;;;;;;;;;;;;;;;4945242;29;20255;-86
2022/11/02 09:59:38;;;;;;;;;;;;;;;;;;4950142;29;19915;-87
2022/11/02 10:02:04;;;;;;;;;;;;;;;;;;4944795;29;19933;-88
2022/11/02 10:04:29;;;;;;;;;;;;;;;;;;4938575;29;20033;-91
2022/11/02 10:06:55;;;;;;;;;;;;;;;;;;4938834;29;19915;-91
2022/11/02 10:09:20;;;;;;;;;;;;;;;;;;4922836;29;19931;-91
2022/11/02 10:11:45;;;;;;;;;;;;;;;;;;4938683;29;19919;-89
2022/11/02 10:14:11;;;;;;;;;;;;;;;;;;4921024;29;19916;-89
2022/11/02 10:16:36;;;;;;;;;;;;;;;;;;4938883;29;20337;-89
2022/11/02 10:19:01;;;;;;;;;;;;;;;;;;4938826;29;19986;-87
2022/11/02 10:21:27;;;;;;;;;;;;;;;;;;4921389;29;20279;-89
2022/11/02 10:23:52;;;;;;;;;;;;;;;;;;4921739;29;20014;-90
2022/11/02 10:26:18;;;;;;;;;;;;;;;;;;4953473;28;19922;-87
2022/11/02 10:28:43;;;;;;;;;;;;;;;;;;4921903;29;20002;-87
2022/11/02 10:31:09;;;;;;;;;;;;;;;;;;4938712;29;19919;-90
2022/11/02 10:33:34;;;;;;;;;;;;;;;;;;4939425;29;19958;-90
2022/11/02 10:36:00;;;;;;;;;;;;;;;;;;4937102;29;19918;-89
2022/11/02 10:38:25;;;;;;;;;;;;;;;;;;4937027;29;19961;-90
2022/11/02 10:40:50;;;;;;;;;;;;;;;;;;4937036;29;19918;-89
2022/11/02 10:43:16;;;;;;;;;;;;;;;;;;4938607;29;19915;-90
2022/11/02 10:45:41;;;;;;;;;;;;;;;;;;4938128;29;19926;-89
2022/11/02 10:48:07;;;;;;;;;;;;;;;;;;4952935;29;20290;-88
2022/11/02 10:50:32;;;;;;;;;;;;;;;;;;4937062;29;20391;-88
2022/11/02 10:52:58;;;;;;;;;;;;;;;;;;4936754;29;19915;-88
2022/11/02 10:55:23;;;;;;;;;;;;;;;;;;4938259;29;19995;-89
2022/11/02 10:57:48;;;;;;;;;;;;;;;;;;4921138;29;19921;-90
2022/11/02 11:00:14;;;;;;;;;;;;;;;;;;4937541;29;19915;-90
2022/11/02 11:02:39;;;;;;;;;;;;;;;;;;4936481;29;19918;-90
2022/11/02 11:05:05;;;;;;;;;;;;;;;;;;4936051;29;19921;-85
2022/11/02 11:07:30;;;;;;;;;;;;;;;;;;4920543;29;20442;-86
2022/11/02 11:09:56;;;;;;;;;;;;;;;;;;4920639;29;19919;-88
2022/11/02 11:12:21;;;;;;;;;;;;;;;;;;4952031;29;20048;-89
2022/11/02 11:14:46;;;;;;;;;;;;;;;;;;4936552;29;19915;-88
2022/11/02 11:17:12;;;;;;;;;;;;;;;;;;4936034;29;19943;-87
2022/11/02 11:19:37;;;;;;;;;;;;;;;;;;4935998;29;19915;-88
2022/11/02 11:22:03;;;;;;;;;;;;;;;;;;4937031;29;20090;-88
2022/11/02 11:24:28;;;;;;;;;;;;;;;;;;4937096;29;19923;-89
2022/11/02 11:26:54;;;;;;;;;;;;;;;;;;4937333;29;19929;-89
2022/11/02 11:29:19;;;;;;;;;;;;;;;;;;4935880;29;20288;-87
2022/11/02 11:31:45;;;;;;;;;;;;;;;;;;4939362;29;19915;-91
2022/11/02 11:34:10;;;;;;;;;;;;;;;;;;4935974;29;20010;-86
2022/11/02 11:36:35;;;;;;;;;;;;;;;;;;4936305;29;19977;-88
2022/11/02 11:39:01;;;;;;;;;;;;;;;;;;4936177;29;19915;-87
2022/11/02 11:41:26;;;;;;;;;;;;;;;;;;4935605;29;20315;-89
2022/11/02 11:43:52;;;;;;;;;;;;;;;;;;4937402;29;19921;-90
2022/11/02 11:46:17;;;;;;;;;;;;;;;;;;4920264;29;19959;-86
2022/11/02 11:48:42;;;;;;;;;;;;;;;;;;4919975;29;19914;-87
2022/11/02 11:51:08;;;;;;;;;;;;;;;;;;4936830;29;19914;-87
2022/11/02 11:53:34;;;;;;;;;;;;;;;;;;4927236;29;19970;-88
2022/11/02 11:55:59;;;;;;;;;;;;;;;;;;4920597;29;19915;-89
2022/11/02 11:58:25;;;;;;;;;;;;;;;;;;4937518;29;19915;-87
2022/11/02 12:00:50;;;;;;;;;;;;;;;;;;4922377;29;19942;-87
2022/11/02 12:03:16;;;;;;;;;;;;;;;;;;4923053;29;19915;-90
2022/11/02 12:05:41;;;;;;;;;;;;;;;;;;4914399;29;20293;-87
2022/11/02 12:08:07;;;;;;;;;;;;;;;;;;4937110;29;20382;-88
2022/11/02 12:10:32;;;;;;;;;;;;;;;;;;4937634;29;19922;-89
2022/11/02 12:12:58;;;;;;;;;;;;;;;;;;4937701;29;20378;-87
2022/11/02 12:15:23;;;;;;;;;;;;;;;;;;4937022;29;19919;-91
2022/11/02 12:17:49;;;;;;;;;;;;;;;;;;4921105;29;20006;-91
2022/11/02 12:20:14;;;;;;;;;;;;;;;;;;4939919;29;19919;-91
2022/11/02 12:22:40;;;;;;;;;;;;;;;;;;4923878;29;19983;-90
2022/11/02 12:25:08;;;;;;;;;;;;;;;;;;4907322;29;19919;-91
2022/11/02 12:27:36;;;;;;;;;;;;;;;;;;4924525;29;19953;-89
2022/11/02 12:30:01;;;;;;;;;;;;;;;;;;4921392;29;19922;-88
2022/11/02 12:32:34;;;;;;;;;;;;;;;;;;4940135;29;19937;-88
2022/11/02 12:35:00;;;;;;;;;;;;;;;;;;4920757;29;20343;-87
2022/11/02 12:37:25;;;;;;;;;;;;;;;;;;4936750;29;19914;-87
2022/11/02 12:39:52;;;;;;;;;;;;;;;;;;4919285;29;20140;-88
2022/11/02 12:42:20;;;;;;;;;;;;;;;;;;4920054;29;19918;-89
2022/11/02 12:44:45;;;;;;;;;;;;;;;;;;4919802;29;19966;-87
2022/11/02 12:47:11;;;;;;;;;;;;;;;;;;4935171;29;20323;-88
2022/11/02 12:49:39;;;;;;;;;;;;;;;;;;4935710;29;20083;-89
2022/11/02 12:52:04;;;;;;;;;;;;;;;;;;4918991;29;19958;-89
2022/11/02 12:54:30;;;;;;;;;;;;;;;;;;4918739;29;20462;-88
2022/11/02 12:56:55;;;;;;;;;;;;;;;;;;4903382;29;19915;-89
2022/11/02 12:59:24;;;;;;;;;;;;;;;;;;4934466;29;19918;-89
2022/11/02 13:01:51;;;;;;;;;;;;;;;;;;4918445;29;20017;-87
2022/11/02 13:04:17;;;;;;;;;;;;;;;;;;4934431;29;19942;-89
2022/11/02 13:06:42;;;;;;;;;;;;;;;;;;4934501;29;20068;-89
2022/11/02 13:09:11;;;;;;;;;;;;;;;;;;4918819;29;20394;-88
2022/11/02 13:11:37;;;;;;;;;;;;;;;;;;4902770;29;19915;-89
2022/11/02 13:14:07;;;;;;;;;;;;;;;;;;4918881;29;19973;-89
2022/11/02 13:16:35;;;;;;;;;;;;;;;;;;4934581;29;19915;-84
2022/11/02 13:19:03;;;;;;;;;;;;;;;;;;4918647;29;19922;-88
2022/11/02 13:21:28;;;;;;;;;;;;;;;;;;4935396;29;19918;-87
2022/11/02 13:23:54;;;;;;;;;;;;;;;;;;4934199;29;20280;-87
2022/11/02 13:26:22;;;;;;;;;;;;;;;;;;4919313;29;19999;-89
2022/11/02 13:28:47;;;;;;;;;;;;;;;;;;4906620;29;19915;-89
2022/11/02 13:31:12;;;;;;;;;;;;;;;;;;4922834;29;19922;-87
2022/11/02 13:33:38;;;;;;;;;;;;;;;;;;4938546;29;20398;-87
2022/11/02 13:36:04;;;;;;;;;;;;;;;;;;4938274;29;20358;-88
2022/11/02 13:38:30;;;;;;;;;;;;;;;;;;4938894;29;19934;-87
2022/11/02 13:40:55;;;;;;;;;;;;;;;;;;4923800;29;19926;-87
2022/11/02 13:43:24;;;;;;;;;;;;;;;;;;4938823;29;19919;-87
2022/11/02 13:45:52;;;;;;;;;;;;;;;;;;4937553;29;19921;-88
2022/11/02 13:48:17;;;;;;;;;;;;;;;;;;4938819;29;20021;-88
2022/11/02 13:50:50;;;;;;;;;;;;;;;;;;4906609;29;20351;-87
2022/11/02 13:53:28;;;;;;;;;;;;;;;;;;4939228;29;19915;-87
2022/11/02 13:56:01;;;;;;;;;;;;;;;;;;4938801;29;19919;-88
2022/11/02 13:58:26;;;;;;;;;;;;;;;;;;4940208;29;20009;-87
2022/11/02 14:00:52;;;;;;;;;;;;;;;;;;4939240;29;20337;-90
2022/11/02 14:03:35;;;;;;;;;;;;;;;;;;4954526;29;20227;-86
2022/11/02 14:06:00;;;;;;;;;;;;;;;;;;4912675;29;19914;-84
2022/11/02 14:08:26;;;;;;;;;;;;;;;;;;4943831;29;20337;-86
2022/11/02 14:10:51;;;;;;;;;;;;;;;;;;4926793;29;19938;-89
2022/11/02 14:13:16;;;;;;;;;;;;;;;;;;4942349;29;19915;-89
2022/11/02 14:15:42;;;;;;;;;;;;;;;;;;4939895;29;20324;-88
2022/11/02 14:18:08;;;;;;;;;;;;;;;;;;4941337;29;20294;-89
2022/11/02 14:20:36;;;;;;;;;;;;;;;;;;4941436;29;19987;-87
2022/11/02 14:23:01;;;;;;;;;;;;;;;;;;4941368;29;19974;-87
2022/11/02 14:25:27;;;;;;;;;;;;;;;;;;4942231;29;19946;-87
2022/11/02 14:27:52;;;;;;;;;;;;;;;;;;4908403;29;20286;-87
2022/11/02 14:30:21;;;;;;;;;;;;;;;;;;4941210;29;19915;-87
2022/11/02 14:32:46;;;;;;;;;;;;;;;;;;4939428;29;19919;-87
2022/11/02 14:35:12;;;;;;;;;;;;;;;;;;4922693;29;20065;-87
2022/11/02 14:37:37;;;;;;;;;;;;;;;;;;4940779;29;20294;-88
2022/11/02 14:40:03;;;;;;;;;;;;;;;;;;4936703;29;19966;-89
2022/11/02 14:42:29;;;;;;;;;;;;;;;;;;4936042;29;20335;-87
2022/11/02 14:44:54;;;;;;;;;;;;;;;;;;4936436;29;19926;-88
2022/11/02 14:47:20;;;;;;;;;;;;;;;;;;4936610;29;19915;-88
2022/11/02 14:49:45;;;;;;;;;;;;;;;;;;4938058;29;19922;-86
2022/11/02 14:52:11;;;;;;;;;;;;;;;;;;4937303;29;19918;-87
2022/11/02 14:54:36;;;;;;;;;;;;;;;;;;4920174;29;19921;-86
2022/11/02 14:57:02;;;;;;;;;;;;;;;;;;4920513;29;19988;-86
2022/11/02 14:59:27;;;;;;;;;;;;;;;;;;4936187;29;19915;-86
2022/11/02 15:01:53;;;;;;;;;;;;;;;;;;4904760;29;19923;-88
2022/11/02 15:04:18;;;;;;;;;;;;;;;;;;4919839;29;20390;-87
2022/11/02 15:06:47;;;;;;;;;;;;;;;;;;4936262;29;19918;-87
2022/11/02 15:09:15;;;;;;;;;;;;;;;;;;4921602;29;19921;-84
2022/11/02 15:11:43;;;;;;;;;;;;;;;;;;4936597;29;19922;-87
2022/11/02 15:14:08;;;;;;;;;;;;;;;;;;4920732;29;20298;-87
2022/11/02 15:16:33;;;;;;;;;;;;;;;;;;4936344;29;20359;-86
2022/11/02 15:18:59;;;;;;;;;;;;;;;;;;4920242;29;19993;-88
2022/11/02 15:21:24;;;;;;;;;;;;;;;;;;4936181;29;19919;-88
2022/11/02 15:23:50;;;;;;;;;;;;;;;;;;4937220;29;19974;-88
2022/11/02 15:26:15;;;;;;;;;;;;;;;;;;4937334;29;20291;-88
2022/11/02 15:28:41;;;;;;;;;;;;;;;;;;4936649;29;20271;-88
2022/11/02 15:31:06;;;;;;;;;;;;;;;;;;4937279;29;20327;-88
2022/11/02 15:33:32;;;;;;;;;;;;;;;;;;4919986;29;20009;-87
2022/11/02 15:35:57;;;;;;;;;;;;;;;;;;4940384;23;20453;-81
2022/11/02 15:38:23;;;;;;;;;;;;;;;;;;4936318;29;19922;-82
2022/11/02 15:40:48;;;;;;;;;;;;;;;;;;4936356;29;20302;-82
2022/11/02 15:43:14;;;;;;;;;;;;;;;;;;4934581;29;20013;-81
2022/11/02 15:45:39;;;;;;;;;;;;;;;;;;4935752;29;19914;-81
2022/11/02 15:48:05;;;;;;;;;;;;;;;;;;4935772;29;19919;-79
2022/11/02 15:50:30;;;;;;;;;;;;;;;;;;4934988;29;20345;-81
2022/11/02 15:52:55;;;;;;;;;;;;;;;;;;4935452;29;19934;-81
2022/11/02 15:55:21;;;;;;;;;;;;;;;;;;4935267;29;19914;-81
2022/11/02 15:57:46;;;;;;;;;;;;;;;;;;4903798;29;19965;-80
2022/11/02 16:00:12;;;;;;;;;;;;;;;;;;4936430;29;19966;-82
2022/11/02 16:02:37;;;;;;;;;;;;;;;;;;4935367;29;20394;-81
2022/11/02 16:05:02;;;;;;;;;;;;;;;;;;4935401;29;20002;-82
2022/11/02 16:07:28;;;;;;;;;;;;;;;;;;4936563;29;19950;-82
2022/11/02 16:09:53;;;;;;;;;;;;;;;;;;4935153;29;19914;-81
2022/11/02 16:12:19;;;;;;;;;;;;;;;;;;4919228;29;20005;-82
2022/11/02 16:14:45;;;;;;;;;;;;;;;;;;4918861;29;19962;-81
2022/11/02 16:17:29;;;;;;;;;;;;;;;;;;4937241;29;19922;-80
2022/11/02 16:19:54;;;;;;;;;;;;;;;;;;4935859;29;19918;-79
2022/11/02 16:22:19;;;;;;;;;;;;;;;;;;4935843;29;20417;-81
2022/11/02 16:24:45;;;;;;;;;;;;;;;;;;4934522;29;19915;-79
2022/11/02 16:27:10;;;;;;;;;;;;;;;;;;4934507;29;20065;-81
2022/11/02 16:29:37;;;;;;;;;;;;;;;;;;4934310;29;19914;-81
2022/11/02 16:32:02;;;;;;;;;;;;;;;;;;4935553;29;19922;-81
2022/11/02 16:34:27;;;;;;;;;;;;;;;;;;4934370;29;19914;-82
2022/11/02 16:36:53;;;;;;;;;;;;;;;;;;4935881;29;19923;-83
2022/11/02 16:39:21;;;;;;;;;;;;;;;;;;4934695;29;19911;-81
2022/11/02 16:41:47;;;;;;;;;;;;;;;;;;4935465;29;19919;-82
2022/11/02 16:44:12;;;;;;;;;;;;;;;;;;4934448;29;19915;-82
2022/11/02 16:46:38;;;;;;;;;;;;;;;;;;4918453;29;20390;-80
2022/11/02 16:49:03;;;;;;;;;;;;;;;;;;4935399;29;19915;-82
2022/11/02 16:51:29;;;;;;;;;;;;;;;;;;4934153;29;19958;-82
2022/11/02 16:53:54;;;;;;;;;;;;;;;;;;4935490;29;20341;-81
2022/11/02 16:56:26;;;;;;;;;;;;;;;;;;4919147;29;20359;-82